Time;durP1;ratioP1;P1;durP2;ratioP2;P2;SDS_P1;SDS_P2;PMS_P1;PMS_P2;Temp;Humidity;BMP_temperature;BMP_pressure;BME280_temperature;BME280_humidity;BME280_pressure;Samples;Min_cycle;Max_cycle;Signal;HPM_P1;HPM_P2
2023/08/17 00:01:34;;;;;;;1.63;0.95;;;23.20;54.70;24.70;101949.00;;;;5044991;28;20216;-79
2023/08/17 00:04:01;;;;;;;3.22;1.23;;;23.20;54.80;24.70;101947.00;;;;5040596;28;20570;-80
2023/08/17 00:06:27;;;;;;;1.15;1.00;;;23.20;54.80;24.70;101951.00;;;;5049223;28;20265;-79
2023/08/17 00:08:56;;;;;;;1.33;0.80;;;23.20;54.80;24.70;101947.00;;;;5048877;28;20200;-78
2023/08/17 00:11:23;;;;;;;2.13;1.20;;;23.10;54.90;24.70;101941.00;;;;5049449;28;20223;-79
2023/08/17 00:13:50;;;;;;;2.58;1.05;;;23.10;54.90;24.70;101952.00;;;;5033276;28;20197;-79
2023/08/17 00:16:18;;;;;;;1.35;1.17;;;23.10;54.90;24.60;101951.00;;;;5030685;28;20219;-79
2023/08/17 00:18:45;;;;;;;1.38;1.15;;;23.10;54.90;24.60;101954.00;;;;5044584;28;20586;-79
2023/08/17 00:21:12;;;;;;;3.10;1.23;;;23.00;54.90;24.60;101948.00;;;;5049030;28;20200;-79
2023/08/17 00:23:39;;;;;;;1.73;0.88;;;23.00;55.00;24.60;101944.00;;;;5049892;28;20214;-79
2023/08/17 00:26:09;;;;;;;1.42;1.00;;;23.00;55.00;24.50;101942.00;;;;5050055;28;20246;-79
2023/08/17 00:28:36;;;;;;;1.70;1.40;;;23.00;55.10;24.50;101946.00;;;;5049844;28;20204;-80
2023/08/17 00:31:03;;;;;;;13.43;1.30;;;23.00;55.10;24.50;101941.00;;;;5051037;28;20203;-79
2023/08/17 00:33:31;;;;;;;3.28;1.70;;;22.90;55.00;24.50;101928.00;;;;5051188;28;20318;-78
2023/08/17 00:35:58;;;;;;;1.45;1.25;;;22.90;55.10;24.50;101921.00;;;;5049330;28;20211;-78
2023/08/17 00:38:25;;;;;;;2.45;1.13;;;22.90;55.20;24.40;101924.00;;;;5049787;28;20195;-79
2023/08/17 00:40:54;;;;;;;2.80;1.40;;;22.90;55.20;24.40;101921.00;;;;5050677;28;20200;-78
2023/08/17 00:43:22;;;;;;;1.60;0.98;;;22.90;55.30;24.40;101920.00;;;;5047533;28;20249;-78
2023/08/17 00:45:49;;;;;;;1.48;1.10;;;22.80;55.30;24.40;101919.00;;;;5050770;28;20200;-79
2023/08/17 00:48:16;;;;;;;2.90;1.33;;;22.80;55.30;24.30;101934.00;;;;5050439;28;20215;-78
2023/08/17 00:50:48;;;;;;;3.22;1.15;;;22.80;55.40;24.30;101923.00;;;;5049710;28;20203;-78
2023/08/17 00:53:16;;;;;;;3.33;1.25;;;22.80;55.50;24.30;101934.00;;;;5048350;28;20210;-78
2023/08/17 00:55:43;;;;;;;1.67;1.30;;;22.70;55.50;24.30;101941.00;;;;5049559;28;20215;-79
2023/08/17 00:58:11;;;;;;;2.13;1.38;;;22.70;55.50;24.30;101935.00;;;;5049415;28;20188;-77
2023/08/17 01:00:40;;;;;;;2.20;1.20;;;22.70;55.60;24.20;101936.00;;;;5049263;28;20200;-78
2023/08/17 01:03:08;;;;;;;2.60;1.40;;;22.60;55.60;24.20;101941.00;;;;5049987;28;20279;-78
2023/08/17 01:05:36;;;;;;;2.88;1.55;;;22.60;55.70;24.20;101941.00;;;;5049915;28;20734;-78
2023/08/17 01:08:03;;;;;;;2.47;1.50;;;22.60;55.70;24.20;101939.00;;;;5049591;28;20316;-78
2023/08/17 01:10:42;;;;;;;5.05;1.67;;;22.60;55.70;24.10;101937.00;;;;5037776;28;20200;-78
2023/08/17 01:13:16;;;;;;;2.22;1.20;;;22.60;55.90;24.10;101948.00;;;;5040116;28;20647;-78
2023/08/17 01:15:53;;;;;;;1.83;1.30;;;22.60;55.90;24.10;101945.00;;;;5049670;28;20654;-78
2023/08/17 01:18:27;;;;;;;2.67;1.38;;;22.50;55.90;24.10;101936.00;;;;5049175;28;20210;-78
2023/08/17 01:20:56;;;;;;;2.72;1.15;;;22.50;55.90;24.10;101934.00;;;;5048388;28;20200;-78
2023/08/17 01:23:25;;;;;;;3.30;1.20;;;22.50;55.90;24.00;101926.00;;;;5049691;28;20203;-78
2023/08/17 01:25:53;;;;;;;2.75;1.67;;;22.40;55.90;24.10;101934.00;;;;5049307;28;20196;-78
2023/08/17 01:28:20;;;;;;;1.63;1.00;;;22.50;56.00;24.00;101926.00;;;;5032118;28;20227;-78
2023/08/17 01:30:58;;;;;;;2.78;1.30;;;22.50;56.00;24.00;101930.00;;;;5049287;28;20211;-79
2023/08/17 01:33:32;;;;;;;2.55;1.20;;;22.40;56.00;24.00;101925.00;;;;5049461;28;20208;-78
2023/08/17 01:36:12;;;;;;;4.28;1.52;;;22.40;56.10;23.90;101920.00;;;;5048709;28;20659;-78
2023/08/17 01:38:42;;;;;;;2.90;1.42;;;22.40;56.20;24.00;101930.00;;;;5048412;28;20198;-77
2023/08/17 01:41:12;;;;;;;2.45;1.30;;;22.40;56.10;24.00;101922.00;;;;5048920;28;20203;-78
2023/08/17 01:43:44;;;;;;;2.90;1.60;;;22.40;56.10;24.00;101923.00;;;;5042977;28;20196;-78
2023/08/17 01:46:13;;;;;;;3.08;1.67;;;22.40;56.10;24.00;101928.00;;;;5029595;28;20192;-77
2023/08/17 01:48:40;;;;;;;2.65;1.30;;;22.30;56.10;24.00;101918.00;;;;5048056;28;20613;-78
2023/08/17 01:51:07;;;;;;;2.22;1.58;;;22.40;56.20;23.90;101916.00;;;;5048509;28;20691;-78
2023/08/17 01:53:35;;;;;;;2.40;1.20;;;22.30;56.20;24.00;101916.00;;;;5046971;28;20206;-78
2023/08/17 01:56:03;;;;;;;1.00;0.90;;;22.30;56.20;23.90;101918.00;;;;5048067;28;20679;-78
2023/08/17 01:58:30;;;;;;;2.78;1.20;;;22.30;56.30;23.90;101907.00;;;;5048889;28;20203;-78
2023/08/17 02:00:57;;;;;;;2.28;1.20;;;22.30;56.30;23.90;101924.00;;;;5047967;28;20199;-78
2023/08/17 02:03:24;;;;;;;2.88;1.00;;;22.30;56.30;23.90;101921.00;;;;5048522;28;20196;-79
2023/08/17 02:05:51;;;;;;;1.77;1.00;;;22.30;56.30;23.90;101920.00;;;;5048185;28;20208;-78
2023/08/17 02:08:18;;;;;;;2.45;1.30;;;22.30;56.40;23.90;101914.00;;;;5047592;28;20596;-78
2023/08/17 02:10:45;;;;;;;1.08;0.95;;;22.30;56.40;23.90;101911.00;;;;5047696;28;20195;-78
2023/08/17 02:13:13;;;;;;;3.10;1.00;;;22.30;56.40;23.90;101908.00;;;;5047336;28;21005;-78
2023/08/17 02:15:40;;;;;;;3.72;1.20;;;22.20;56.40;23.90;101919.00;;;;5046967;28;20973;-77
2023/08/17 02:18:08;;;;;;;7.40;1.48;;;22.20;56.40;23.90;101931.00;;;;5046463;28;20187;-78
2023/08/17 02:20:35;;;;;;;2.30;1.20;;;22.20;56.40;23.80;101927.00;;;;5047439;28;20210;-79
2023/08/17 02:23:03;;;;;;;1.25;1.10;;;22.20;56.40;23.80;101916.00;;;;5047813;28;20211;-78
2023/08/17 02:25:35;;;;;;;2.95;1.27;;;22.20;56.50;23.80;101922.00;;;;5046831;28;20208;-78
2023/08/17 02:28:02;;;;;;;2.38;1.30;;;22.20;56.50;23.80;101922.00;;;;5046985;28;20595;-78
2023/08/17 02:30:30;;;;;;;1.73;1.30;;;22.10;56.50;23.80;101913.00;;;;5045493;28;20204;-79
2023/08/17 02:32:57;;;;;;;3.33;1.10;;;22.10;56.50;23.80;101911.00;;;;5047355;28;20192;-79
2023/08/17 02:35:25;;;;;;;5.88;1.80;;;22.10;56.60;23.80;101913.00;;;;5045996;28;20207;-78
2023/08/17 02:37:52;;;;;;;1.90;1.13;;;22.10;56.60;23.70;101904.00;;;;5038489;28;20203;-79
2023/08/17 02:40:19;;;;;;;3.20;1.63;;;22.10;56.60;23.70;101904.00;;;;5047355;28;20195;-78
2023/08/17 02:42:46;;;;;;;2.65;1.30;;;22.10;56.60;23.70;101895.00;;;;5047214;28;20199;-79
2023/08/17 02:45:13;;;;;;;1.75;1.00;;;22.10;56.70;23.70;101896.00;;;;5047111;28;20204;-78
2023/08/17 02:47:41;;;;;;;1.70;1.17;;;22.00;56.70;23.70;101890.00;;;;5047083;28;20230;-78
2023/08/17 02:50:09;;;;;;;3.88;1.13;;;22.00;56.80;23.60;101896.00;;;;5047834;28;20207;-78
2023/08/17 02:52:36;;;;;;;1.80;1.13;;;22.00;56.70;23.60;101893.00;;;;5037011;28;20200;-78
2023/08/17 02:55:04;;;;;;;3.63;1.40;;;22.00;56.80;23.60;101888.00;;;;5048151;28;20204;-78
2023/08/17 02:57:31;;;;;;;1.90;1.25;;;22.00;56.90;23.60;101894.00;;;;5040229;28;20207;-79
2023/08/17 02:59:58;;;;;;;4.70;1.48;;;21.90;56.90;23.60;101883.00;;;;5044651;28;20206;-78
2023/08/17 03:02:25;;;;;;;2.10;1.10;;;22.00;56.90;23.60;101891.00;;;;5032824;28;20219;-78
2023/08/17 03:04:54;;;;;;;3.00;1.30;;;22.00;57.00;23.60;101885.00;;;;5046033;28;20195;-78
2023/08/17 03:07:21;;;;;;;1.58;1.30;;;22.00;57.00;23.60;101889.00;;;;5045317;28;20231;-78
2023/08/17 03:09:48;;;;;;;2.10;1.23;;;22.00;57.00;23.60;101891.00;;;;5047131;28;20206;-78
2023/08/17 03:12:15;;;;;;;1.08;0.98;;;22.00;57.00;23.50;101889.00;;;;5045871;28;20199;-78
2023/08/17 03:14:42;;;;;;;1.88;1.15;;;21.90;57.00;23.50;101889.00;;;;5046865;28;20570;-78
2023/08/17 03:17:09;;;;;;;2.13;1.20;;;21.90;57.10;23.50;101883.00;;;;5047202;28;20536;-77
2023/08/17 03:19:36;;;;;;;3.92;1.10;;;21.90;57.10;23.50;101889.00;;;;5047190;28;20863;-78
2023/08/17 03:22:04;;;;;;;1.60;1.27;;;21.90;57.10;23.50;101892.00;;;;5047272;28;20226;-78
2023/08/17 03:24:31;;;;;;;3.17;1.15;;;21.80;57.10;23.50;101886.00;;;;5041828;28;20207;-78
2023/08/17 03:26:58;;;;;;;2.13;1.27;;;21.80;57.20;23.50;101882.00;;;;5046881;28;20203;-78
2023/08/17 03:29:26;;;;;;;1.98;1.20;;;21.80;57.20;23.50;101874.00;;;;5047146;28;20206;-78
2023/08/17 03:31:53;;;;;;;3.53;1.95;;;21.80;57.20;23.50;101885.00;;;;5047215;28;20253;-78
2023/08/17 03:34:20;;;;;;;3.50;1.80;;;21.80;57.30;23.50;101878.00;;;;5047311;28;20223;-78
2023/08/17 03:36:47;;;;;;;4.90;1.33;;;21.80;57.30;23.50;101882.00;;;;5047942;28;20211;-78
2023/08/17 03:39:16;;;;;;;3.75;1.38;;;21.80;57.30;23.40;101882.00;;;;5046565;28;20203;-78
2023/08/17 03:41:43;;;;;;;2.53;1.50;;;21.80;57.40;23.40;101881.00;;;;5045753;28;20198;-79
2023/08/17 03:44:10;;;;;;;3.78;1.58;;;21.80;57.30;23.40;101883.00;;;;5043806;28;20195;-78
2023/08/17 03:46:37;;;;;;;3.20;1.50;;;21.80;57.40;23.40;101878.00;;;;5046939;28;20211;-78
2023/08/17 03:49:04;;;;;;;3.30;1.50;;;21.70;57.30;23.40;101887.00;;;;5045232;28;20707;-78
2023/08/17 03:51:31;;;;;;;3.30;1.63;;;21.70;57.40;23.40;101892.00;;;;5046108;28;20204;-78
2023/08/17 03:53:58;;;;;;;2.90;1.20;;;21.70;57.50;23.40;101887.00;;;;5034625;28;20279;-79
2023/08/17 03:56:26;;;;;;;4.40;1.58;;;21.70;57.40;23.30;101885.00;;;;5046941;28;20207;-78
2023/08/17 03:58:54;;;;;;;2.78;1.23;;;21.70;57.50;23.30;101890.00;;;;5046768;28;20207;-78
2023/08/17 04:01:21;;;;;;;2.95;1.40;;;21.70;57.60;23.30;101889.00;;;;5046450;28;20204;-78
2023/08/17 04:03:48;;;;;;;3.90;1.23;;;21.70;57.50;23.30;101890.00;;;;5047618;28;20192;-78
2023/08/17 04:06:15;;;;;;;2.65;1.27;;;21.70;57.50;23.30;101888.00;;;;5045045;28;20227;-79
2023/08/17 04:08:42;;;;;;;2.22;1.52;;;21.60;57.50;23.30;101890.00;;;;5046138;28;20235;-78
2023/08/17 04:11:09;;;;;;;2.80;1.45;;;21.60;57.50;23.30;101889.00;;;;5047183;28;20199;-78
2023/08/17 04:13:38;;;;;;;2.22;1.50;;;21.70;57.70;23.30;101890.00;;;;5045827;28;20208;-77
2023/08/17 04:16:05;;;;;;;1.58;1.02;;;21.60;57.70;23.30;101892.00;;;;5045174;28;20210;-78
2023/08/17 04:18:32;;;;;;;2.10;1.08;;;21.60;57.70;23.30;101891.00;;;;5047670;28;20204;-78
2023/08/17 04:20:59;;;;;;;3.33;1.08;;;21.60;57.60;23.30;101888.00;;;;5050588;28;20200;-78
2023/08/17 04:23:26;;;;;;;3.70;1.55;;;21.60;57.70;23.30;101894.00;;;;5050972;28;20589;-78
2023/08/17 04:25:55;;;;;;;2.42;1.10;;;21.60;57.70;23.20;101886.00;;;;5050602;28;20206;-78
2023/08/17 04:28:22;;;;;;;2.88;1.10;;;21.60;57.70;23.30;101888.00;;;;5051023;28;20710;-77
2023/08/17 04:30:51;;;;;;;3.97;1.50;;;21.60;57.70;23.20;101892.00;;;;5050458;28;20207;-77
2023/08/17 04:33:17;;;;;;;2.33;1.25;;;21.60;57.80;23.30;101892.00;;;;5050385;28;20192;-77
2023/08/17 04:35:48;;;;;;;2.70;1.15;;;21.60;57.80;23.20;101895.00;;;;5043265;28;20675;-78
2023/08/17 04:38:15;;;;;;;1.73;1.25;;;21.60;57.80;23.20;101900.00;;;;5030243;28;20204;-78
2023/08/17 04:40:42;;;;;;;1.65;1.30;;;21.60;57.80;23.20;101901.00;;;;5031191;28;20197;-78
2023/08/17 04:43:11;;;;;;;1.50;0.95;;;21.60;57.80;23.20;101900.00;;;;5040970;28;20584;-78
2023/08/17 04:45:38;;;;;;;1.73;1.08;;;21.60;57.80;23.20;101900.00;;;;5050448;28;20192;-77
2023/08/17 04:48:07;;;;;;;4.18;1.45;;;21.60;57.80;23.20;101893.00;;;;5051022;28;20223;-78
2023/08/17 04:50:34;;;;;;;4.53;1.10;;;21.60;57.80;23.20;101887.00;;;;5046416;28;20205;-78
2023/08/17 04:53:02;;;;;;;2.78;1.27;;;21.60;57.80;23.20;101889.00;;;;5030496;28;20200;-78
2023/08/17 04:55:31;;;;;;;3.00;1.15;;;21.60;57.80;23.20;101886.00;;;;5035662;28;20226;-78
2023/08/17 04:57:58;;;;;;;2.17;1.08;;;21.60;57.90;23.20;101898.00;;;;5049872;28;20191;-77
2023/08/17 05:00:27;;;;;;;3.15;1.20;;;21.60;57.90;23.20;101887.00;;;;5049849;28;20203;-78
2023/08/17 05:02:55;;;;;;;1.88;1.00;;;21.50;57.90;23.20;101883.00;;;;5047170;28;20825;-77
2023/08/17 05:05:24;;;;;;;3.53;1.08;;;21.50;57.90;23.20;101882.00;;;;5030636;28;20189;-78
2023/08/17 05:07:51;;;;;;;2.80;1.20;;;21.60;58.40;23.20;101881.00;;;;5039696;28;20235;-78
2023/08/17 05:10:17;;;;;;;2.15;0.93;;;21.50;57.90;23.20;101881.00;;;;5049505;28;20996;-78
2023/08/17 05:12:46;;;;;;;1.33;1.00;;;21.60;57.90;23.20;101876.00;;;;5050607;28;20358;-78
2023/08/17 05:15:14;;;;;;;1.70;1.00;;;21.60;58.00;23.20;101877.00;;;;5050195;28;20664;-78
2023/08/17 05:17:41;;;;;;;2.13;1.23;;;21.50;58.00;23.20;101876.00;;;;5044258;28;20214;-77
2023/08/17 05:20:09;;;;;;;3.45;1.27;;;21.50;58.00;23.20;101875.00;;;;5049626;28;20204;-77
2023/08/17 05:22:37;;;;;;;3.05;1.63;;;21.50;58.00;23.20;101879.00;;;;5049436;28;20203;-77
2023/08/17 05:25:06;;;;;;;2.92;1.80;;;21.50;58.10;23.20;101875.00;;;;5048787;28;20859;-77
2023/08/17 05:27:33;;;;;;;2.85;1.85;;;21.50;58.10;23.20;101879.00;;;;5049433;28;20195;-77
2023/08/17 05:30:00;;;;;;;3.22;1.40;;;21.50;58.10;23.20;101883.00;;;;5048015;28;20222;-77
2023/08/17 05:32:27;;;;;;;1.25;1.00;;;21.50;58.10;23.20;101885.00;;;;5049521;28;20559;-78
2023/08/17 05:34:54;;;;;;;1.77;1.05;;;21.50;58.10;23.20;101884.00;;;;5048690;28;20199;-77
2023/08/17 05:37:21;;;;;;;2.15;1.25;;;21.50;58.20;23.20;101875.00;;;;5048271;28;20690;-78
2023/08/17 05:39:49;;;;;;;3.35;1.23;;;21.50;58.20;23.20;101881.00;;;;5048811;28;20203;-78
2023/08/17 05:42:16;;;;;;;2.35;1.00;;;21.50;58.30;23.20;101877.00;;;;5039237;28;20211;-78
2023/08/17 05:44:43;;;;;;;1.23;1.08;;;21.50;58.20;23.20;101878.00;;;;5030099;28;20204;-78
2023/08/17 05:47:10;;;;;;;2.80;0.93;;;21.50;58.30;23.20;101872.00;;;;5046603;28;20199;-78
2023/08/17 05:49:37;;;;;;;2.42;1.30;;;21.60;58.40;23.20;101878.00;;;;5044776;28;20223;-78
2023/08/17 05:52:05;;;;;;;3.25;1.20;;;21.60;58.30;23.20;101876.00;;;;5046972;28;20596;-78
2023/08/17 05:54:32;;;;;;;1.55;1.13;;;21.60;58.40;23.30;101878.00;;;;5046965;28;20207;-77
2023/08/17 05:57:00;;;;;;;6.45;1.20;;;21.60;58.50;23.30;101885.00;;;;5047122;28;20588;-78
2023/08/17 05:59:27;;;;;;;2.00;1.38;;;21.60;58.50;23.30;101896.00;;;;5036791;28;20200;-78
2023/08/17 06:01:54;;;;;;;4.20;0.90;;;21.60;58.50;23.40;101894.00;;;;5048880;28;20200;-78
2023/08/17 06:04:21;;;;;;;1.60;1.25;;;21.60;58.60;23.40;101897.00;;;;5047940;28;20211;-79
2023/08/17 06:06:49;;;;;;;2.08;0.98;;;21.70;59.20;23.40;101907.00;;;;5049000;28;20231;-78
2023/08/17 06:09:16;;;;;;;1.17;0.80;;;21.70;58.60;23.50;101912.00;;;;5047406;28;20308;-78
2023/08/17 06:11:43;;;;;;;1.63;0.82;;;21.80;58.60;23.50;101909.00;;;;5045917;28;20200;-78
2023/08/17 06:14:12;;;;;;;1.80;1.08;;;21.80;58.60;23.50;101910.00;;;;5047073;28;20186;-79
2023/08/17 06:16:39;;;;;;;2.88;1.10;;;21.90;58.70;23.60;101904.00;;;;5043709;28;20550;-78
2023/08/17 06:19:06;;;;;;;2.03;1.08;;;21.90;58.70;23.70;101908.00;;;;5049156;28;20203;-78
2023/08/17 06:21:33;;;;;;;3.72;1.30;;;22.00;58.70;23.70;101904.00;;;;5047113;28;20195;-79
2023/08/17 06:24:00;;;;;;;3.00;0.90;;;22.00;58.60;23.70;101912.00;;;;5047447;28;20198;-79
2023/08/17 06:26:26;;;;;;;3.78;0.93;;;22.00;58.60;23.80;101914.00;;;;5047026;28;20206;-78
2023/08/17 06:28:54;;;;;;;2.38;1.38;;;22.10;58.50;23.80;101926.00;;;;5046751;28;20599;-77
2023/08/17 06:31:27;;;;;;;3.10;1.30;;;22.10;58.50;23.80;101921.00;;;;5030437;28;20191;-77
2023/08/17 06:33:54;;;;;;;1.65;1.35;;;22.10;58.90;23.80;101912.00;;;;5043353;28;20207;-79
2023/08/17 06:36:21;;;;;;;1.52;1.13;;;22.10;58.30;23.80;101923.00;;;;5040968;28;20192;-79
2023/08/17 06:38:48;;;;;;;3.67;1.00;;;22.20;58.30;23.80;101919.00;;;;5038567;28;20203;-78
2023/08/17 06:41:15;;;;;;;4.13;1.50;;;22.20;58.30;23.80;101923.00;;;;5036970;28;20200;-79
2023/08/17 06:43:42;;;;;;;2.38;1.05;;;22.20;58.20;23.80;101927.00;;;;5041930;28;20204;-78
2023/08/17 06:46:09;;;;;;;1.63;1.02;;;22.20;58.20;23.80;101926.00;;;;5040109;28;20207;-80
2023/08/17 06:48:38;;;;;;;2.72;1.15;;;22.20;58.20;23.80;101918.00;;;;5036547;28;20231;-80
2023/08/17 06:51:05;;;;;;;2.25;1.10;;;22.20;58.20;23.90;101925.00;;;;5034343;28;20203;-79
2023/08/17 06:53:32;;;;;;;2.10;0.90;;;22.20;58.30;23.90;101919.00;;;;5040638;28;20663;-79
2023/08/17 06:55:59;;;;;;;2.67;1.20;;;22.30;58.40;23.90;101921.00;;;;5040444;28;20201;-79
2023/08/17 06:58:26;;;;;;;1.70;1.10;;;22.30;58.40;24.00;101922.00;;;;5038731;28;20203;-79
2023/08/17 07:00:53;;;;;;;1.67;1.20;;;22.30;58.40;24.00;101919.00;;;;5037606;28;20214;-79
2023/08/17 07:03:21;;;;;;;2.45;0.88;;;22.30;58.40;24.00;101927.00;;;;5032871;28;20725;-77
2023/08/17 07:05:49;;;;;;;2.10;1.00;;;22.40;58.40;24.00;101925.00;;;;5036705;28;20210;-79
2023/08/17 07:08:16;;;;;;;1.95;1.10;;;22.40;58.40;24.10;101925.00;;;;5036860;28;20227;-78
2023/08/17 07:10:43;;;;;;;2.00;1.17;;;22.40;58.40;24.10;101925.00;;;;5038564;28;20580;-78
2023/08/17 07:13:10;;;;;;;2.28;1.33;;;22.40;58.30;24.10;101918.00;;;;5039695;28;20203;-78
2023/08/17 07:15:37;;;;;;;2.80;0.90;;;22.50;58.30;24.10;101918.00;;;;5039179;28;21331;-78
2023/08/17 07:18:05;;;;;;;3.30;1.35;;;22.50;58.30;24.20;101915.00;;;;5034626;28;20203;-78
2023/08/17 07:20:33;;;;;;;1.98;1.05;;;22.50;58.30;24.20;101914.00;;;;5036007;28;20227;-79
2023/08/17 07:23:02;;;;;;;1.63;1.23;;;22.60;58.40;24.20;101917.00;;;;5036626;28;20687;-78
2023/08/17 07:25:29;;;;;;;2.72;1.00;;;22.60;58.40;24.30;101912.00;;;;5038123;28;20219;-78
2023/08/17 07:27:56;;;;;;;1.77;1.10;;;22.60;58.50;24.30;101922.00;;;;5040625;28;20208;-78
2023/08/17 07:30:24;;;;;;;2.03;0.95;;;22.60;58.50;24.40;101916.00;;;;5038042;28;20439;-78
2023/08/17 07:32:51;;;;;;;2.33;1.00;;;22.70;58.70;24.50;101921.00;;;;5035864;28;20569;-78
2023/08/17 07:35:18;;;;;;;2.42;1.73;;;22.80;58.70;24.60;101919.00;;;;5040220;28;20554;-78
2023/08/17 07:37:45;;;;;;;1.75;1.20;;;22.80;58.60;24.60;101924.00;;;;5038265;28;20671;-80
2023/08/17 07:40:13;;;;;;;2.50;1.20;;;22.90;58.50;24.60;101920.00;;;;5037067;28;20402;-78
2023/08/17 07:42:40;;;;;;;2.67;1.27;;;22.90;58.40;24.70;101929.00;;;;5039700;28;20567;-77
2023/08/17 07:45:09;;;;;;;3.35;1.42;;;23.00;58.40;24.70;101922.00;;;;5044510;28;20200;-76
2023/08/17 07:47:37;;;;;;;1.98;1.60;;;23.00;58.20;24.70;101924.00;;;;5042078;28;20434;-76
2023/08/17 07:50:05;;;;;;;1.60;1.23;;;23.10;58.10;24.70;101913.00;;;;5046145;28;20276;-76
2023/08/17 07:52:32;;;;;;;3.88;1.25;;;23.10;58.00;24.80;101917.00;;;;5045450;28;20200;-76
2023/08/17 07:54:59;;;;;;;2.38;1.02;;;23.10;57.90;24.80;101921.00;;;;5048575;28;20200;-76
2023/08/17 07:57:28;;;;;;;2.17;1.05;;;23.20;57.90;24.80;101923.00;;;;5049200;28;20235;-77
2023/08/17 07:59:54;;;;;;;3.22;1.48;;;23.20;57.90;24.80;101930.00;;;;5050661;28;20208;-77
2023/08/17 08:02:22;;;;;;;3.33;1.52;;;23.20;57.90;24.90;101917.00;;;;5049311;28;20571;-76
2023/08/17 08:04:49;;;;;;;2.80;1.60;;;23.20;57.90;24.90;101920.00;;;;5050328;28;20196;-78
2023/08/17 08:07:15;;;;;;;1.98;1.40;;;23.30;58.00;25.00;101921.00;;;;5050187;28;20223;-77
2023/08/17 08:09:42;;;;;;;2.45;1.48;;;23.30;57.90;25.00;101920.00;;;;5047315;28;20227;-77
2023/08/17 08:12:09;;;;;;;2.88;1.45;;;23.30;57.80;25.00;101920.00;;;;5050955;28;20250;-78
2023/08/17 08:14:38;;;;;;;4.80;1.52;;;23.40;57.80;25.00;101926.00;;;;5047082;28;20212;-77
2023/08/17 08:17:05;;;;;;;2.03;1.00;;;23.40;57.70;25.00;101926.00;;;;5043222;28;20207;-79
2023/08/17 08:19:32;;;;;;;3.85;1.15;;;23.40;57.60;25.10;101925.00;;;;5051375;28;20199;-78
2023/08/17 08:21:59;;;;;;;8.50;1.10;;;23.40;57.60;25.10;101931.00;;;;5050427;28;20204;-78
2023/08/17 08:24:31;;;;;;;1.48;1.05;;;23.50;57.60;25.10;101928.00;;;;5051559;28;20233;-78
2023/08/17 08:26:58;;;;;;;2.00;1.15;;;23.50;57.70;25.20;101923.00;;;;5043310;28;20860;-78
2023/08/17 08:29:25;;;;;;;1.67;1.08;;;23.50;57.70;25.30;101913.00;;;;5050540;28;20223;-77
2023/08/17 08:31:53;;;;;;;3.22;1.00;;;23.60;57.80;25.30;101922.00;;;;5050183;28;20590;-78
2023/08/17 08:34:20;;;;;;;1.10;0.90;;;23.70;57.90;25.40;101927.00;;;;5050467;28;20199;-78
2023/08/17 08:36:48;;;;;;;2.75;1.10;;;23.70;57.70;25.50;101937.00;;;;5044342;28;20208;-77
2023/08/17 08:39:15;;;;;;;4.32;1.70;;;23.80;57.80;25.50;101940.00;;;;5046040;28;20295;-80
2023/08/17 08:41:42;;;;;;;2.47;1.42;;;23.80;57.70;25.60;101933.00;;;;5039760;28;20199;-79
2023/08/17 08:44:09;;;;;;;4.03;1.42;;;23.90;57.60;25.60;101927.00;;;;5047121;28;20207;-78
2023/08/17 08:46:41;;;;;;;2.63;1.40;;;24.00;57.60;25.70;101921.00;;;;5044344;28;20209;-79
2023/08/17 08:49:12;;;;;;;1.33;1.15;;;24.00;57.50;25.70;101924.00;;;;5034622;28;20249;-79
2023/08/17 08:51:46;;;;;;;2.17;0.95;;;24.10;57.40;25.70;101923.00;;;;5049191;28;20663;-80
2023/08/17 08:54:21;;;;;;;1.85;1.30;;;24.20;57.30;25.80;101919.00;;;;5034315;28;20203;-79
2023/08/17 08:56:52;;;;;;;3.50;1.40;;;24.20;57.20;25.80;101915.00;;;;5048011;28;20211;-79
2023/08/17 08:59:22;;;;;;;1.92;1.20;;;24.20;57.00;25.80;101921.00;;;;5049083;28;20226;-79
2023/08/17 09:01:49;;;;;;;1.83;1.42;;;24.20;57.00;25.80;101905.00;;;;5050012;28;20196;-78
2023/08/17 09:04:18;;;;;;;4.03;1.30;;;24.30;56.90;25.80;101908.00;;;;5048990;28;20570;-79
2023/08/17 09:06:46;;;;;;;4.35;1.17;;;24.20;56.90;25.90;101913.00;;;;5044299;28;20231;-79
2023/08/17 09:09:16;;;;;;;1.98;1.20;;;24.30;57.00;25.90;101913.00;;;;5047951;28;20211;-79
2023/08/17 09:11:43;;;;;;;2.60;1.05;;;24.30;57.10;26.00;101915.00;;;;5044090;28;20200;-79
2023/08/17 09:14:10;;;;;;;2.88;1.25;;;24.30;57.20;26.00;101908.00;;;;5047195;28;20207;-78
2023/08/17 09:16:37;;;;;;;4.35;1.23;;;24.40;57.30;26.00;101915.00;;;;5045580;28;20312;-79
2023/08/17 09:19:06;;;;;;;2.35;1.67;;;24.40;57.10;26.10;101898.00;;;;5048268;28;20595;-78
2023/08/17 09:21:35;;;;;;;0.90;0.77;;;24.40;56.90;26.00;101903.00;;;;5045392;28;20203;-78
2023/08/17 09:24:02;;;;;;;3.28;1.02;;;24.40;56.80;26.10;101902.00;;;;5047177;28;20196;-79
2023/08/17 09:26:33;;;;;;;1.40;1.20;;;24.50;56.80;26.00;101901.00;;;;5046298;28;20203;-78
2023/08/17 09:29:02;;;;;;;7.55;1.50;;;24.50;56.70;26.10;101894.00;;;;5042451;28;20721;-79
2023/08/17 09:31:33;;;;;;;2.72;1.40;;;24.50;56.60;26.00;101899.00;;;;5046814;28;20230;-80
2023/08/17 09:34:06;;;;;;;2.20;1.10;;;24.50;56.60;26.00;101895.00;;;;5047043;28;20257;-78
2023/08/17 09:36:36;;;;;;;4.47;1.25;;;24.50;56.60;26.10;101896.00;;;;5048991;28;20211;-79
2023/08/17 09:39:04;;;;;;;2.72;1.00;;;24.50;56.60;26.10;101899.00;;;;5046836;28;20204;-78
2023/08/17 09:41:31;;;;;;;3.72;1.25;;;24.50;56.70;26.10;101899.00;;;;5045094;28;20699;-79
2023/08/17 09:43:58;;;;;;;3.20;1.40;;;24.50;56.70;26.10;101896.00;;;;5046654;28;20591;-79
2023/08/17 09:46:26;;;;;;;5.00;1.40;;;24.50;56.70;26.10;101896.00;;;;5048899;28;20207;-77
2023/08/17 09:48:54;;;;;;;4.65;1.55;;;24.50;56.80;26.10;101894.00;;;;5042458;28;20215;-77
2023/08/17 09:51:22;;;;;;;4.15;1.63;;;24.50;56.80;26.20;101891.00;;;;5048732;28;20207;-77
2023/08/17 09:53:54;;;;;;;2.95;1.60;;;24.60;56.90;26.10;101888.00;;;;5049397;28;20218;-77
2023/08/17 09:56:24;;;;;;;2.03;1.63;;;24.60;57.10;26.20;101886.00;;;;5048117;28;20196;-77
2023/08/17 09:58:52;;;;;;;6.78;2.13;;;24.60;57.10;26.30;101890.00;;;;5046436;28;21698;-77
2023/08/17 10:01:21;;;;;;;4.18;1.88;;;24.60;57.10;26.40;101888.00;;;;5044098;28;20212;-77
2023/08/17 10:03:51;;;;;;;2.08;1.20;;;24.70;57.20;26.40;101876.00;;;;5048300;28;20195;-77
2023/08/17 10:06:25;;;;;;;3.35;1.80;;;24.70;57.20;26.40;101884.00;;;;5047130;28;20230;-76
2023/08/17 10:08:58;;;;;;;3.45;1.42;;;24.80;57.00;26.50;101880.00;;;;5047164;28;20203;-77
2023/08/17 10:11:29;;;;;;;5.53;2.10;;;24.90;57.00;26.60;101870.00;;;;5049373;28;20196;-81
2023/08/17 10:14:05;;;;;;;3.83;2.17;;;24.90;56.90;26.50;101873.00;;;;5043481;28;20208;-80
2023/08/17 10:16:45;;;;;;;4.00;2.45;;;25.00;56.80;26.60;101864.00;;;;5042347;28;20195;-80
2023/08/17 10:19:23;;;;;;;2.88;1.80;;;25.00;56.60;26.60;101865.00;;;;5046697;28;20206;-80
2023/08/17 10:22:00;;;;;;;6.10;2.33;;;25.10;56.70;26.70;101858.00;;;;5047181;28;20282;-80
2023/08/17 10:24:30;;;;;;;4.55;1.90;;;25.10;56.70;26.70;101865.00;;;;5042209;28;20195;-80
2023/08/17 10:26:58;;;;;;;2.97;1.70;;;25.20;56.70;26.80;101861.00;;;;5042974;28;20203;-77
2023/08/17 10:29:26;;;;;;;3.55;2.30;;;25.20;56.70;26.90;101865.00;;;;5038169;28;20219;-77
2023/08/17 10:31:54;;;;;;;2.38;1.65;;;25.30;56.70;26.90;101871.00;;;;5043685;28;20196;-78
2023/08/17 10:34:21;;;;;;;3.05;2.00;;;25.30;57.10;26.90;101875.00;;;;5044371;28;20192;-75
2023/08/17 10:36:49;;;;;;;3.05;2.03;;;25.30;56.40;26.90;101863.00;;;;5045275;28;20203;-75
2023/08/17 10:39:22;;;;;;;4.35;2.63;;;25.30;56.20;26.80;101873.00;;;;5047856;28;20230;-74
2023/08/17 10:41:52;;;;;;;3.10;2.25;;;25.30;56.10;26.80;101871.00;;;;5043732;28;20617;-75
2023/08/17 10:44:39;;;;;;;4.30;2.10;;;25.30;56.00;26.70;101874.00;;;;5042984;28;20207;-76
2023/08/17 10:47:21;;;;;;;4.50;2.13;;;25.30;56.00;26.70;101876.00;;;;5043991;28;20234;-76
2023/08/17 10:49:50;;;;;;;3.70;2.25;;;25.30;55.90;26.80;101873.00;;;;5041162;28;20238;-76
2023/08/17 10:52:30;;;;;;;3.42;2.28;;;25.30;56.00;26.70;101879.00;;;;5040203;28;20262;-76